sensor_id;sensor_type;location;lat;lon;timestamp;temperature;humidity
27870;DHT22;15225;50.730;4.244;2022-11-20T18:15:52;7.70;66.40
27870;DHT22;15225;50.730;4.244;2022-11-20T18:18:18;7.70;66.50
27870;DHT22;15225;50.730;4.244;2022-11-20T18:20:44;8.00;68.50
27870;DHT22;15225;50.730;4.244;2022-11-20T18:23:09;8.30;61.80
27870;DHT22;15225;50.730;4.244;2022-11-20T18:25:35;8.80;47.90
27870;DHT22;15225;50.730;4.244;2022-11-20T18:28:01;9.30;33.10
27870;DHT22;15225;50.730;4.244;2022-11-20T18:30:27;9.50;9.70
27870;DHT22;15225;50.730;4.244;2022-11-20T18:32:52;9.70;1.00
27870;DHT22;15225;50.730;4.244;2022-11-20T18:35:18;9.70;1.00
27870;DHT22;15225;50.730;4.244;2022-11-20T18:37:44;9.60;1.00
27870;DHT22;15225;50.730;4.244;2022-11-20T18:40:10;9.60;1.00
27870;DHT22;15225;50.730;4.244;2022-11-20T18:42:36;9.40;1.00
27870;DHT22;15225;50.730;4.244;2022-11-20T18:45:20;9.40;1.00
27870;DHT22;15225;50.730;4.244;2022-11-20T18:47:46;9.50;1.00
27870;DHT22;15225;50.730;4.244;2022-11-20T18:50:12;9.60;1.00
27870;DHT22;15225;50.730;4.244;2022-11-20T18:52:41;9.70;1.00
27870;DHT22;15225;50.730;4.244;2022-11-20T18:55:12;9.80;1.00
27870;DHT22;15225;50.730;4.244;2022-11-20T18:57:38;9.80;1.00
27870;DHT22;15225;50.730;4.244;2022-11-20T19:00:04;9.70;1.00
27870;DHT22;15225;50.730;4.244;2022-11-20T19:02:30;9.80;1.00
27870;DHT22;15225;50.730;4.244;2022-11-20T19:04:56;9.80;1.00
27870;DHT22;15225;50.730;4.244;2022-11-20T19:07:23;9.80;1.00
27870;DHT22;15225;50.730;4.244;2022-11-20T19:09:50;9.70;1.00
27870;DHT22;15225;50.730;4.244;2022-11-20T19:12:17;9.70;1.00
27870;DHT22;15225;50.730;4.244;2022-11-20T19:14:43;9.70;1.00
27870;DHT22;15225;50.730;4.244;2022-11-20T19:17:10;9.60;1.00
27870;DHT22;15225;50.730;4.244;2022-11-20T19:19:37;9.50;1.00
27870;DHT22;15225;50.730;4.244;2022-11-20T19:22:03;9.60;1.00
27870;DHT22;15225;50.730;4.244;2022-11-20T19:24:29;9.50;1.00
27870;DHT22;15225;50.730;4.244;2022-11-20T19:26:55;9.40;1.00
27870;DHT22;15225;50.730;4.244;2022-11-20T19:29:22;9.50;1.00
27870;DHT22;15225;50.730;4.244;2022-11-20T19:31:48;9.50;1.00
27870;DHT22;15225;50.730;4.244;2022-11-20T19:34:14;9.40;1.00
27870;DHT22;15225;50.730;4.244;2022-11-20T19:36:41;9.50;1.00
27870;DHT22;15225;50.730;4.244;2022-11-20T19:39:08;9.40;1.00
27870;DHT22;15225;50.730;4.244;2022-11-20T19:41:37;9.40;1.00
27870;DHT22;15225;50.730;4.244;2022-11-20T19:44:11;9.50;1.00
27870;DHT22;15225;50.730;4.244;2022-11-20T19:46:38;9.40;1.00
27870;DHT22;15225;50.730;4.244;2022-11-20T19:49:05;9.30;1.00
27870;DHT22;15225;50.730;4.244;2022-11-20T19:51:35;9.30;1.00
27870;DHT22;15225;50.730;4.244;2022-11-20T19:54:02;9.30;1.00
27870;DHT22;15225;50.730;4.244;2022-11-20T19:56:29;9.40;99.90
27870;DHT22;15225;50.730;4.244;2022-11-20T19:58:56;9.40;99.90
27870;DHT22;15225;50.730;4.244;2022-11-20T20:01:24;9.30;1.00
27870;DHT22;15225;50.730;4.244;2022-11-20T20:03:51;9.30;1.00
27870;DHT22;15225;50.730;4.244;2022-11-20T20:06:24;9.20;1.00
27870;DHT22;15225;50.730;4.244;2022-11-20T20:08:58;9.20;1.00
27870;DHT22;15225;50.730;4.244;2022-11-20T20:11:26;9.20;1.00
27870;DHT22;15225;50.730;4.244;2022-11-20T20:13:52;9.20;99.90
27870;DHT22;15225;50.730;4.244;2022-11-20T20:16:21;9.30;99.90
27870;DHT22;15225;50.730;4.244;2022-11-20T20:18:47;9.40;99.90
27870;DHT22;15225;50.730;4.244;2022-11-20T20:21:14;9.30;99.90
27870;DHT22;15225;50.730;4.244;2022-11-20T20:23:41;9.30;99.90
27870;DHT22;15225;50.730;4.244;2022-11-20T20:26:09;9.30;99.90
27870;DHT22;15225;50.730;4.244;2022-11-20T20:28:36;9.10;99.90
27870;DHT22;15225;50.730;4.244;2022-11-20T20:31:10;9.10;99.90
27870;DHT22;15225;50.730;4.244;2022-11-20T20:33:37;9.10;99.90
27870;DHT22;15225;50.730;4.244;2022-11-20T20:36:05;9.10;99.90
27870;DHT22;15225;50.730;4.244;2022-11-20T20:38:31;9.10;99.90
27870;DHT22;15225;50.730;4.244;2022-11-20T20:40:57;9.00;99.90
27870;DHT22;15225;50.730;4.244;2022-11-20T20:43:23;9.00;99.90
27870;DHT22;15225;50.730;4.244;2022-11-20T20:45:49;9.20;99.90
27870;DHT22;15225;50.730;4.244;2022-11-20T20:48:17;9.10;99.90
27870;DHT22;15225;50.730;4.244;2022-11-20T20:50:56;9.00;99.90
27870;DHT22;15225;50.730;4.244;2022-11-20T20:53:22;9.00;99.90
27870;DHT22;15225;50.730;4.244;2022-11-20T20:55:59;9.00;99.90
27870;DHT22;15225;50.730;4.244;2022-11-20T20:58:26;9.00;99.90
27870;DHT22;15225;50.730;4.244;2022-11-20T21:00:52;9.00;99.90
27870;DHT22;15225;50.730;4.244;2022-11-20T21:03:18;9.00;99.90
27870;DHT22;15225;50.730;4.244;2022-11-20T21:05:45;9.00;99.90
27870;DHT22;15225;50.730;4.244;2022-11-20T21:08:11;9.00;99.90
27870;DHT22;15225;50.730;4.244;2022-11-20T21:10:46;9.00;99.90
27870;DHT22;15225;50.730;4.244;2022-11-20T21:13:12;9.00;99.90
27870;DHT22;15225;50.730;4.244;2022-11-20T21:18:15;9.20;99.90
27870;DHT22;15225;50.730;4.244;2022-11-20T21:20:42;9.40;99.90
27870;DHT22;15225;50.730;4.244;2022-11-20T21:23:27;9.50;99.90
27870;DHT22;15225;50.730;4.244;2022-11-20T21:25:53;9.60;99.90
27870;DHT22;15225;50.730;4.244;2022-11-20T21:28:18;9.60;99.90
